createdAt,value
2019-01-31T00:02:11.251Z,99377.13
2019-01-31T00:07:02.065Z,99373.00
2019-01-31T00:12:01.638Z,99371.69
2019-01-31T00:16:51.770Z,99369.45
2019-01-31T00:21:42.626Z,99382.66
2019-01-31T00:26:34.324Z,99387.29
2019-01-31T00:31:25.991Z,99393.77
2019-01-31T00:36:34.480Z,99390.47
2019-01-31T00:41:37.845Z,99400.23
2019-01-31T00:46:26.218Z,99406.21
2019-01-31T00:51:17.640Z,99404.70
2019-01-31T00:56:09.574Z,99407.39
2019-01-31T01:01:04.076Z,99419.09
2019-01-31T01:05:55.469Z,99403.89
2019-01-31T01:10:46.852Z,99405.38
2019-01-31T01:15:38.143Z,99407.08
2019-01-31T01:20:29.781Z,99411.63
2019-01-31T01:25:23.403Z,99411.50
2019-01-31T01:30:14.418Z,99414.41
2019-01-31T01:35:06.018Z,99420.91
2019-01-31T01:39:57.963Z,99416.06
2019-01-31T01:44:49.883Z,99423.87
2019-01-31T01:49:41.218Z,99427.94
2019-01-31T01:54:32.872Z,99432.20
2019-01-31T01:59:24.294Z,99428.68
2019-01-31T02:04:18.725Z,99435.72
2019-01-31T02:09:11.672Z,99433.19
2019-01-31T02:14:02.537Z,99429.67
2019-01-31T02:18:56.258Z,99428.01
2019-01-31T02:23:47.363Z,99423.30
2019-01-31T02:28:38.965Z,99418.52
2019-01-31T02:33:30.429Z,99428.86
2019-01-31T02:38:22.206Z,99425.92
2019-01-31T02:43:15.770Z,99423.55
2019-01-31T02:48:06.814Z,99424.08
2019-01-31T02:52:58.656Z,99418.05
2019-01-31T02:57:50.119Z,99416.06
2019-01-31T03:02:41.842Z,99417.45
2019-01-31T03:07:33.416Z,99412.84
2019-01-31T03:12:25.149Z,99412.51
2019-01-31T03:17:16.668Z,99405.65
2019-01-31T03:22:10.281Z,99409.59
2019-01-31T03:27:01.346Z,99408.72
2019-01-31T03:31:53.157Z,99407.24
2019-01-31T03:41:56.254Z,99398.67
2019-01-31T03:46:48.126Z,99403.57
2019-01-31T03:51:39.764Z,99398.91
2019-01-31T03:56:32.161Z,99397.09
2019-01-31T04:01:23.350Z,99401.38
2019-01-31T04:06:14.942Z,99402.97
2019-01-31T04:11:06.688Z,99405.80
2019-01-31T04:15:58.336Z,99403.67
2019-01-31T04:20:52.895Z,99417.09
2019-01-31T04:25:44.056Z,99408.20
2019-01-31T04:30:35.451Z,99401.97
2019-01-31T04:35:45.705Z,99408.70
2019-01-31T04:40:33.112Z,99407.99
2019-01-31T04:45:23.786Z,99413.70
2019-01-31T04:50:16.430Z,99412.19
2019-01-31T04:55:10.085Z,99415.79
2019-01-31T05:00:01.519Z,99413.12
2019-01-31T05:04:54.696Z,99412.56
2019-01-31T05:09:47.233Z,99412.25
2019-01-31T05:14:40.459Z,99417.10
2019-01-31T05:19:33.543Z,99412.40
2019-01-31T05:24:37.092Z,99408.13
2019-01-31T05:29:25.977Z,99408.65
2019-01-31T05:34:19.203Z,99405.81
2019-01-31T05:39:11.232Z,99401.02
2019-01-31T05:44:17.553Z,99416.88
2019-01-31T05:49:06.962Z,99420.36
2019-01-31T05:54:04.376Z,99423.41
2019-01-31T05:59:07.853Z,99422.13
2019-01-31T06:03:56.126Z,99430.82
2019-01-31T06:08:46.479Z,99430.44
2019-01-31T06:13:54.254Z,99436.03
2019-01-31T06:18:50.751Z,99433.95
2019-01-31T06:23:54.393Z,99433.94
2019-01-31T06:28:43.946Z,99435.34
2019-01-31T06:33:50.496Z,99436.80
2019-01-31T06:38:39.221Z,99439.83
2019-01-31T06:43:29.754Z,99432.78
2019-01-31T06:48:20.786Z,99441.08
2019-01-31T06:53:11.303Z,99444.92
2019-01-31T06:58:00.510Z,99447.12
2019-01-31T07:02:59.101Z,99455.70
2019-01-31T07:07:48.669Z,99456.75
2019-01-31T07:12:38.884Z,99458.80
2019-01-31T07:17:36.163Z,99462.86
2019-01-31T07:22:24.129Z,99476.52
2019-01-31T07:27:13.893Z,99481.66
2019-01-31T07:32:12.749Z,99481.03
2019-01-31T07:37:01.911Z,99484.83
2019-01-31T07:41:58.951Z,99484.48
2019-01-31T07:46:48.773Z,99483.54
2019-01-31T07:51:38.128Z,99483.31
2019-01-31T07:56:30.260Z,99485.65
2019-01-31T08:01:21.491Z,99499.28
2019-01-31T08:06:13.678Z,99494.08
2019-01-31T08:11:06.354Z,99492.77
2019-01-31T08:15:58.240Z,99489.31
2019-01-31T08:20:50.691Z,99501.04
2019-01-31T08:25:42.736Z,99496.45
2019-01-31T08:30:39.186Z,99491.94
2019-01-31T08:35:31.300Z,99491.64
2019-01-31T08:40:20.690Z,99494.95
2019-01-31T08:45:29.215Z,99503.09
2019-01-31T08:50:31.590Z,99502.30
2019-01-31T08:55:37.606Z,99503.70
2019-01-31T09:00:22.838Z,99505.97
2019-01-31T09:05:27.586Z,99501.12
2019-01-31T09:10:30.221Z,99497.17
2019-01-31T09:15:33.351Z,99493.62
2019-01-31T09:20:36.678Z,99491.55
2019-01-31T09:25:37.983Z,99493.02
2019-01-31T09:30:41.601Z,99489.06
2019-01-31T09:35:43.761Z,99487.36
2019-01-31T09:40:46.643Z,99490.36
2019-01-31T09:45:49.757Z,99493.58
2019-01-31T09:50:53.394Z,99485.07
2019-01-31T09:55:41.652Z,99486.78
2019-01-31T10:00:31.081Z,99474.02
2019-01-31T10:05:36.870Z,99479.98
2019-01-31T10:10:34.043Z,99478.41
2019-01-31T10:15:31.812Z,99483.17
2019-01-31T10:20:35.805Z,99483.34
2019-01-31T10:25:36.349Z,99480.90
2019-01-31T10:30:40.503Z,99484.84
2019-01-31T10:35:29.159Z,99471.62
2019-01-31T10:40:18.833Z,99464.84
2019-01-31T10:45:11.140Z,99455.66
2019-01-31T10:50:18.553Z,99452.63
2019-01-31T10:55:20.916Z,99438.52
2019-01-31T11:00:16.894Z,99439.03
2019-01-31T11:05:24.576Z,99431.80
2019-01-31T11:17:54.207Z,99420.45
2019-01-31T11:28:27.571Z,99410.59
2019-01-31T11:33:24.338Z,99412.48
2019-01-31T11:38:28.177Z,99405.95
2019-01-31T11:43:24.912Z,99405.20
2019-01-31T11:48:28.210Z,99399.37
2019-01-31T11:53:24.760Z,99398.45
2019-01-31T11:58:28.647Z,99396.80
2019-01-31T12:03:16.987Z,99398.40
2019-01-31T12:08:21.948Z,99396.94
2019-01-31T12:13:25.238Z,99389.30
2019-01-31T12:18:25.955Z,99395.23
2019-01-31T12:23:28.930Z,99391.66
2019-01-31T12:28:31.787Z,99389.20
2019-01-31T12:33:35.270Z,99387.69
2019-01-31T12:38:38.961Z,99392.40
2019-01-31T12:43:41.815Z,99390.42
2019-01-31T12:48:44.881Z,99384.72
2019-01-31T12:53:47.176Z,99386.44
2019-01-31T12:58:43.039Z,99383.06
2019-01-31T13:03:31.071Z,99376.17
2019-01-31T13:08:29.874Z,99374.18
2019-01-31T13:13:27.090Z,99369.91
2019-01-31T13:18:30.262Z,99369.84
2019-01-31T13:23:33.929Z,99366.41
2019-01-31T13:28:20.159Z,99366.88
2019-01-31T13:33:19.246Z,99365.95
2019-01-31T13:38:08.217Z,99358.98
2019-01-31T13:43:14.095Z,99357.73
2019-01-31T13:48:17.493Z,99362.09
2019-01-31T13:53:20.520Z,99364.09
2019-01-31T13:58:25.276Z,99367.67
2019-01-31T14:03:28.037Z,99364.27
2019-01-31T14:08:28.994Z,99362.41
2019-01-31T14:13:31.798Z,99358.74
2019-01-31T14:18:35.406Z,99354.22
2019-01-31T14:23:40.493Z,99355.64
2019-01-31T14:28:43.568Z,99354.69
2019-01-31T14:33:46.584Z,99349.86
2019-01-31T14:38:49.402Z,99339.39
2019-01-31T14:43:49.944Z,99338.67
2019-01-31T14:48:53.217Z,99336.19
2019-01-31T14:53:56.961Z,99334.97
2019-01-31T14:58:58.493Z,99340.51
2019-01-31T15:03:46.513Z,99346.03
2019-01-31T15:08:51.998Z,99341.34
2019-01-31T15:13:55.851Z,99332.41
2019-01-31T15:18:59.783Z,99333.52
2019-01-31T15:24:02.218Z,99336.41
2019-01-31T15:29:05.739Z,99339.94
2019-01-31T15:34:07.168Z,99337.25
2019-01-31T15:38:53.856Z,99335.08
2019-01-31T15:43:59.328Z,99330.74
2019-01-31T15:49:00.490Z,99322.41
2019-01-31T15:54:03.410Z,99308.02
2019-01-31T15:58:51.604Z,99304.81
2019-01-31T16:03:50.608Z,99300.47
2019-01-31T16:08:54.325Z,99286.23
2019-01-31T16:13:57.655Z,99287.55
2019-01-31T16:19:02.717Z,99276.39
2019-01-31T16:24:06.003Z,99269.44
2019-01-31T16:29:09.063Z,99267.34
2019-01-31T16:34:12.306Z,99270.08
2019-01-31T16:39:17.478Z,99264.61
2019-01-31T16:44:19.751Z,99258.65
2019-01-31T16:49:23.306Z,99253.08
2019-01-31T16:54:24.856Z,99247.02
2019-01-31T16:59:11.998Z,99241.64
2019-01-31T17:04:09.505Z,99239.39
2019-01-31T17:09:13.279Z,99243.66
2019-01-31T17:14:15.605Z,99245.41
2019-01-31T17:19:12.593Z,99242.70
2019-01-31T17:24:16.457Z,99241.50
2019-01-31T17:29:05.508Z,99249.91
2019-01-31T17:34:11.081Z,99252.30
2019-01-31T17:39:13.749Z,99243.82
2019-01-31T17:44:15.378Z,99236.98
2019-01-31T17:49:18.616Z,99228.45
2019-01-31T17:54:05.937Z,99231.08
2019-01-31T17:59:09.723Z,99229.80
2019-01-31T18:04:12.289Z,99218.27
2019-01-31T18:09:15.457Z,99224.25
2019-01-31T18:14:12.750Z,99218.78
2019-01-31T18:19:01.836Z,99213.91
2019-01-31T18:24:05.849Z,99209.56
2019-01-31T18:29:07.538Z,99201.42
2019-01-31T18:34:09.410Z,99214.32
2019-01-31T18:39:12.695Z,99198.04
2019-01-31T18:44:14.204Z,99196.23
2019-01-31T18:49:15.595Z,99188.85
2019-01-31T18:54:17.656Z,99181.97
2019-01-31T18:59:11.643Z,99172.48
2019-01-31T19:04:13.074Z,99168.42
2019-01-31T19:09:16.196Z,99169.02
2019-01-31T19:14:16.917Z,99164.42
2019-01-31T19:19:20.049Z,99169.16
2019-01-31T19:24:22.926Z,99160.64
2019-01-31T19:29:10.512Z,99155.74
2019-01-31T19:34:09.551Z,99145.91
2019-01-31T19:39:13.688Z,99129.59
2019-01-31T19:44:15.199Z,99127.50
2019-01-31T19:49:18.043Z,99129.82
2019-01-31T19:54:21.038Z,99129.05
2019-01-31T19:59:15.207Z,99118.14
2019-01-31T20:04:12.895Z,99103.34
2019-01-31T20:15:33.575Z,99085.81
2019-01-31T20:20:38.278Z,99069.43
2019-01-31T20:25:35.831Z,99066.83
2019-01-31T20:30:24.427Z,99064.44
2019-01-31T20:35:13.030Z,99063.23
2019-01-31T20:40:04.311Z,99060.62
2019-01-31T20:45:09.726Z,99061.92
2019-01-31T20:49:58.384Z,99048.13
2019-01-31T20:54:47.808Z,99046.71
2019-01-31T20:59:40.043Z,99031.35
2019-01-31T21:04:29.168Z,99032.37
2019-01-31T21:09:25.059Z,99025.50
2019-01-31T21:14:14.729Z,99023.36
2019-01-31T21:19:12.135Z,99030.09
2019-01-31T21:24:10.446Z,99025.32
2019-01-31T21:28:59.691Z,99010.11
2019-01-31T21:39:38.909Z,98988.09
2019-01-31T21:44:25.492Z,98975.27
2019-01-31T21:49:25.122Z,98976.79
2019-01-31T22:00:45.324Z,98952.97
2019-01-31T22:05:48.527Z,98948.61
2019-01-31T22:10:51.726Z,98936.45
2019-01-31T22:15:54.161Z,98933.66
2019-01-31T22:20:56.582Z,98925.42
2019-01-31T22:25:44.442Z,98933.47
2019-01-31T22:30:49.280Z,98934.95
2019-01-31T22:35:37.361Z,98923.34
2019-01-31T22:40:30.275Z,98918.62
2019-01-31T22:45:21.296Z,98913.16
2019-01-31T22:50:14.839Z,98909.35
2019-01-31T22:55:05.801Z,98899.12
2019-01-31T22:59:59.085Z,98898.50
2019-01-31T23:04:50.161Z,98885.39
2019-01-31T23:09:43.928Z,98875.09
2019-01-31T23:14:43.846Z,98865.88
2019-01-31T23:19:33.407Z,98865.32
2019-01-31T23:24:22.073Z,98856.60
2019-01-31T23:29:27.651Z,98848.59
2019-01-31T23:34:31.006Z,98832.85
2019-01-31T23:39:19.259Z,98828.24
2019-01-31T23:44:10.191Z,98823.25
2019-01-31T23:49:01.112Z,98811.51
2019-01-31T23:54:00.407Z,98796.19
2019-01-31T23:58:47.841Z,98790.06
